Time;durP1;ratioP1;P1;durP2;ratioP2;P2;SDS_P1;SDS_P2;PMS_P1;PMS_P2;Temp;Humidity;BMP_temperature;BMP_pressure;BME280_temperature;BME280_humidity;BME280_pressure;Samples;Min_cycle;Max_cycle;Signal;HPM_P1;HPM_P2
2021/12/01 00:00:22;;;;;;;7.07;2.13;;;10.80;90.00;;;;;;5038312;28;20056;-75
2021/12/01 00:02:55;;;;;;;6.60;1.50;;;10.80;90.00;;;;;;5037508;28;20083;-75
2021/12/01 00:05:23;;;;;;;4.75;1.60;;;10.80;90.10;;;;;;5037135;28;20026;-75
2021/12/01 00:07:50;;;;;;;6.05;1.58;;;10.80;90.10;;;;;;5038540;28;20460;-75
2021/12/01 00:10:18;;;;;;;3.90;1.63;;;10.90;90.30;;;;;;5036916;28;20037;-75
2021/12/01 00:12:45;;;;;;;7.47;1.90;;;10.80;90.20;;;;;;5038369;28;20057;-75
2021/12/01 00:15:11;;;;;;;5.75;1.73;;;10.90;90.30;;;;;;5038275;28;20084;-74
2021/12/01 00:17:37;;;;;;;5.25;1.40;;;10.80;90.10;;;;;;5027723;28;20503;-75
2021/12/01 00:20:09;;;;;;;9.77;1.85;;;10.90;90.30;;;;;;5038022;28;20026;-75
2021/12/01 00:22:36;;;;;;;4.70;2.42;;;10.90;90.40;;;;;;5038214;28;20021;-75
2021/12/01 00:25:02;;;;;;;4.90;1.48;;;10.80;90.20;;;;;;5036651;28;20022;-75
2021/12/01 00:27:28;;;;;;;5.28;1.45;;;10.90;90.50;;;;;;5038235;28;20017;-75
2021/12/01 00:29:55;;;;;;;3.45;1.33;;;10.90;90.50;;;;;;5037962;28;20021;-75
2021/12/01 00:32:21;;;;;;;7.68;1.70;;;10.90;90.60;;;;;;5037712;28;20025;-75
2021/12/01 00:34:46;;;;;;;3.83;1.52;;;11.00;90.90;;;;;;5037891;28;20025;-75
2021/12/01 00:37:12;;;;;;;4.72;1.60;;;11.00;90.80;;;;;;5037862;28;20432;-75
2021/12/01 00:39:38;;;;;;;7.20;1.95;;;11.00;90.80;;;;;;5037563;28;20065;-75
2021/12/01 00:42:04;;;;;;;5.63;1.70;;;11.00;91.00;;;;;;5038067;28;20075;-75
2021/12/01 00:44:31;;;;;;;7.47;1.60;;;11.00;91.10;;;;;;5037650;28;20021;-75
2021/12/01 00:47:06;;;;;;;4.72;1.70;;;11.00;91.20;;;;;;5037532;28;20017;-75
2021/12/01 00:49:34;;;;;;;8.68;1.60;;;11.00;91.30;;;;;;5033954;28;20440;-75
2021/12/01 00:52:00;;;;;;;6.65;1.90;;;11.00;91.50;;;;;;5028633;28;20033;-75
2021/12/01 00:54:26;;;;;;;4.90;2.20;;;11.00;91.60;;;;;;5037472;28;20021;-74
2021/12/01 00:56:52;;;;;;;4.28;1.42;;;11.00;92.00;;;;;;5037691;28;20787;-74
2021/12/01 00:59:19;;;;;;;6.10;1.70;;;11.00;92.00;;;;;;5037371;28;20018;-74
2021/12/01 01:01:46;;;;;;;4.57;1.40;;;11.00;92.20;;;;;;5037501;28;20021;-74
2021/12/01 01:04:12;;;;;;;5.35;1.65;;;11.00;92.20;;;;;;5037281;28;20626;-75
2021/12/01 01:06:38;;;;;;;3.97;1.40;;;11.00;92.30;;;;;;5036278;28;20022;-74
2021/12/01 01:09:06;;;;;;;5.38;1.42;;;11.00;92.30;;;;;;5037245;28;20029;-74
2021/12/01 01:17:06;;;;;;;5.50;1.33;;;11.00;92.60;;;;;;5037105;28;20137;-75
2021/12/01 01:19:33;;;;;;;8.65;1.33;;;11.10;92.90;;;;;;5037423;28;20029;-75
2021/12/01 01:22:00;;;;;;;5.28;1.40;;;11.10;93.10;;;;;;5037161;28;20021;-76
2021/12/01 01:24:28;;;;;;;4.78;1.52;;;11.00;93.10;;;;;;5035971;28;20109;-75
2021/12/01 01:26:56;;;;;;;5.25;1.20;;;11.00;93.10;;;;;;5037400;28;20049;-75
2021/12/01 01:29:22;;;;;;;5.35;1.27;;;11.00;93.20;;;;;;5037509;28;20029;-75
2021/12/01 01:31:56;;;;;;;4.85;1.10;;;11.00;93.40;;;;;;5036770;28;20022;-75
2021/12/01 01:34:23;;;;;;;5.38;1.02;;;11.00;93.50;;;;;;5037103;28;20439;-75
2021/12/01 01:36:49;;;;;;;3.00;1.02;;;11.00;93.70;;;;;;5036352;28;20053;-75
2021/12/01 01:39:17;;;;;;;2.53;0.88;;;11.00;93.60;;;;;;5037142;28;20029;-75
2021/12/01 01:41:43;;;;;;;1.90;0.85;;;11.00;93.60;;;;;;5037329;28;20053;-75
2021/12/01 01:44:09;;;;;;;2.17;0.90;;;11.10;93.80;;;;;;5036918;28;20027;-75
2021/12/01 01:46:37;;;;;;;3.75;0.95;;;11.10;94.10;;;;;;5036911;28;20049;-75
2021/12/01 01:49:09;;;;;;;3.83;0.90;;;11.10;94.40;;;;;;5036889;28;20059;-76
2021/12/01 01:51:36;;;;;;;2.88;0.82;;;11.10;94.40;;;;;;5024653;28;20025;-76
2021/12/01 01:54:02;;;;;;;6.00;1.20;;;11.10;94.40;;;;;;5036760;28;20077;-75
2021/12/01 01:56:28;;;;;;;3.17;1.05;;;11.10;94.20;;;;;;5037085;28;20029;-76
2021/12/01 01:58:55;;;;;;;2.13;0.80;;;11.10;94.30;;;;;;5036859;28;20079;-76
2021/12/01 02:03:54;;;;;;;3.15;0.70;;;11.10;94.40;;;;;;5036840;28;20049;-75
2021/12/01 02:06:23;;;;;;;2.78;0.82;;;11.20;94.80;;;;;;5036976;28;20480;-75
2021/12/01 02:08:51;;;;;;;3.00;0.90;;;11.20;95.00;;;;;;5036850;28;20408;-76
2021/12/01 02:11:19;;;;;;;2.97;1.10;;;11.20;95.20;;;;;;5036877;28;20030;-75
2021/12/01 02:13:45;;;;;;;3.45;0.85;;;11.30;95.30;;;;;;5036778;28;20988;-76
2021/12/01 02:16:13;;;;;;;1.85;0.77;;;11.30;95.40;;;;;;5036494;28;20013;-75
2021/12/01 02:18:40;;;;;;;1.92;0.90;;;11.20;95.40;;;;;;5036767;28;20029;-76
2021/12/01 02:21:13;;;;;;;2.38;0.90;;;11.20;95.30;;;;;;5036811;28;20114;-75
2021/12/01 02:23:44;;;;;;;2.28;1.05;;;11.30;95.40;;;;;;5040201;28;20026;-75
2021/12/01 02:26:11;;;;;;;1.45;0.73;;;11.20;95.40;;;;;;5040391;28;20039;-76
2021/12/01 02:28:38;;;;;;;3.70;0.82;;;11.20;95.30;;;;;;5027208;28;20028;-76
2021/12/01 02:31:04;;;;;;;1.92;0.80;;;11.30;95.40;;;;;;5039951;28;20026;-76
2021/12/01 02:33:31;;;;;;;2.38;0.80;;;11.30;95.40;;;;;;5040159;28;20029;-75
2021/12/01 02:35:57;;;;;;;1.20;0.68;;;11.20;95.20;;;;;;5039966;28;20028;-75
2021/12/01 02:38:23;;;;;;;2.45;0.90;;;11.20;95.00;;;;;;5040172;28;20033;-76
2021/12/01 02:40:50;;;;;;;1.92;0.70;;;11.30;95.20;;;;;;5039946;28;20037;-76
2021/12/01 02:43:16;;;;;;;1.48;0.75;;;11.30;95.30;;;;;;5040054;28;20025;-75
2021/12/01 02:45:43;;;;;;;1.65;0.70;;;11.40;95.50;;;;;;5039848;28;20029;-75
2021/12/01 02:48:13;;;;;;;1.27;0.60;;;11.30;95.60;;;;;;5039909;28;20024;-75
2021/12/01 02:50:42;;;;;;;1.98;0.60;;;11.40;95.60;;;;;;5024931;28;20507;-75
2021/12/01 02:53:08;;;;;;;1.95;0.60;;;11.30;95.30;;;;;;5026607;28;20025;-75
2021/12/01 02:55:41;;;;;;;1.13;0.60;;;11.30;95.20;;;;;;5039771;28;20074;-75
2021/12/01 02:58:08;;;;;;;1.65;0.60;;;11.40;95.50;;;;;;5032882;28;20037;-75
2021/12/01 03:00:34;;;;;;;2.95;0.85;;;11.40;95.80;;;;;;5039461;28;20029;-75
2021/12/01 03:03:00;;;;;;;0.75;0.60;;;11.40;95.50;;;;;;5038458;28;20549;-75
2021/12/01 03:05:26;;;;;;;1.67;0.70;;;11.40;95.50;;;;;;5039636;28;20056;-75
2021/12/01 03:07:53;;;;;;;1.65;0.70;;;11.40;95.70;;;;;;5039917;28;20029;-74
2021/12/01 03:10:19;;;;;;;1.67;0.50;;;11.50;95.80;;;;;;5039441;28;20512;-75
2021/12/01 03:12:45;;;;;;;0.73;0.55;;;11.50;95.80;;;;;;5039543;28;20076;-75
2021/12/01 03:15:12;;;;;;;0.75;0.50;;;11.50;96.00;;;;;;5039126;28;20029;-75
2021/12/01 03:17:38;;;;;;;1.20;1.02;;;11.50;96.10;;;;;;5028157;28;20437;-74
2021/12/01 03:20:09;;;;;;;1.25;0.60;;;11.60;96.20;;;;;;5039297;28;20052;-75
2021/12/01 03:22:35;;;;;;;1.17;0.70;;;11.60;96.30;;;;;;5039507;28;20100;-75
2021/12/01 03:25:01;;;;;;;2.10;0.75;;;11.60;96.40;;;;;;5039225;28;20052;-75
2021/12/01 03:27:26;;;;;;;1.02;0.70;;;11.60;96.40;;;;;;5039274;28;20025;-75
2021/12/01 03:29:52;;;;;;;1.02;0.65;;;11.60;96.40;;;;;;5039218;28;20060;-75
2021/12/01 03:32:20;;;;;;;1.50;0.70;;;11.60;96.40;;;;;;5038789;28;20086;-75
2021/12/01 03:34:46;;;;;;;2.38;0.93;;;11.70;96.50;;;;;;5038140;28;20040;-75
2021/12/01 03:37:12;;;;;;;1.40;1.05;;;11.70;96.60;;;;;;5038822;28;20531;-75
2021/12/01 03:39:38;;;;;;;4.65;0.70;;;11.70;96.50;;;;;;5038746;28;20104;-75
2021/12/01 03:42:05;;;;;;;1.48;0.70;;;11.70;96.60;;;;;;5039057;28;20022;-75
2021/12/01 03:44:32;;;;;;;0.70;0.50;;;11.80;96.70;;;;;;5038722;28;20044;-75
2021/12/01 03:46:58;;;;;;;1.73;0.70;;;11.80;96.70;;;;;;5038845;28;20026;-76
2021/12/01 03:49:24;;;;;;;1.77;0.60;;;11.80;96.70;;;;;;5036210;28;20018;-75
2021/12/01 03:51:50;;;;;;;1.40;0.60;;;11.80;96.90;;;;;;5028285;28;20026;-75
2021/12/01 03:54:16;;;;;;;1.65;0.65;;;11.80;96.80;;;;;;5038527;28;20029;-75
2021/12/01 03:56:42;;;;;;;1.25;0.57;;;11.90;97.00;;;;;;5038544;28;20468;-75
2021/12/01 03:59:08;;;;;;;0.80;0.50;;;11.90;97.00;;;;;;5038618;28;20557;-75
2021/12/01 04:01:34;;;;;;;1.20;0.60;;;11.90;97.00;;;;;;5037066;28;20067;-75
2021/12/01 04:04:00;;;;;;;3.00;0.80;;;11.80;96.90;;;;;;5038505;28;20021;-75
2021/12/01 04:06:27;;;;;;;3.53;1.10;;;11.80;96.90;;;;;;5038775;28;20498;-75
2021/12/01 04:08:54;;;;;;;3.88;1.10;;;11.80;96.80;;;;;;5038336;28;20021;-75
2021/12/01 04:11:21;;;;;;;1.27;0.50;;;11.80;96.90;;;;;;5038541;28;20083;-75
2021/12/01 04:13:47;;;;;;;1.35;0.60;;;11.80;96.80;;;;;;5038443;28;20029;-75
2021/12/01 04:16:13;;;;;;;1.30;0.77;;;11.80;96.80;;;;;;5038044;28;20396;-75
2021/12/01 04:18:39;;;;;;;2.10;0.60;;;11.80;96.80;;;;;;5038257;28;20030;-75
2021/12/01 04:21:05;;;;;;;1.00;0.70;;;11.80;96.60;;;;;;5038189;28;20036;-75
2021/12/01 04:23:34;;;;;;;0.90;0.60;;;11.80;96.70;;;;;;5038172;28;20021;-75
2021/12/01 04:26:03;;;;;;;1.88;0.80;;;11.70;96.60;;;;;;5038307;28;20029;-75
2021/12/01 04:28:29;;;;;;;2.40;0.90;;;11.70;96.70;;;;;;5037938;28;20109;-75
2021/12/01 04:30:55;;;;;;;0.88;0.60;;;11.70;96.80;;;;;;5037785;28;20057;-75
2021/12/01 04:33:21;;;;;;;3.40;0.80;;;11.70;96.70;;;;;;5037843;28;20036;-75
2021/12/01 04:35:49;;;;;;;2.55;0.73;;;11.70;96.60;;;;;;5038031;28;20026;-75
2021/12/01 04:38:15;;;;;;;3.80;0.70;;;11.70;96.20;;;;;;5038068;28;20053;-75
2021/12/01 04:40:41;;;;;;;4.55;1.30;;;11.60;95.70;;;;;;5037668;28;20029;-75
2021/12/01 04:43:06;;;;;;;6.30;1.10;;;11.50;95.40;;;;;;5037982;28;20040;-75
2021/12/01 04:45:36;;;;;;;6.25;0.85;;;11.50;95.10;;;;;;5037221;28;20022;-75
2021/12/01 04:48:02;;;;;;;5.85;1.33;;;11.40;94.90;;;;;;5038030;28;20037;-75
2021/12/01 04:50:28;;;;;;;7.78;1.02;;;11.30;94.80;;;;;;5024244;28;20026;-75
2021/12/01 04:52:57;;;;;;;5.78;1.25;;;11.30;94.60;;;;;;5035784;28;20399;-75
2021/12/01 04:55:24;;;;;;;4.68;1.08;;;11.20;94.50;;;;;;5037621;28;20029;-75
2021/12/01 04:57:50;;;;;;;5.40;1.10;;;11.10;94.20;;;;;;5037319;28;20025;-75
2021/12/01 05:00:26;;;;;;;7.32;1.10;;;11.10;94.10;;;;;;5037447;28;20025;-75
2021/12/01 05:02:53;;;;;;;5.25;1.10;;;11.00;94.00;;;;;;5024786;28;20037;-75
2021/12/01 05:05:19;;;;;;;5.03;1.02;;;10.90;93.90;;;;;;5037486;28;20025;-76
2021/12/01 05:07:45;;;;;;;4.50;1.27;;;10.90;93.90;;;;;;5037692;28;20022;-75
2021/12/01 05:10:11;;;;;;;9.30;1.35;;;10.80;93.80;;;;;;5037312;28;20104;-75
2021/12/01 05:12:38;;;;;;;11.00;1.45;;;10.70;93.60;;;;;;5037616;28;20045;-75
2021/12/01 05:15:05;;;;;;;7.63;2.25;;;10.70;93.40;;;;;;5035847;28;20032;-74
2021/12/01 05:17:31;;;;;;;6.45;1.88;;;10.60;93.00;;;;;;5037366;28;20029;-75
2021/12/01 05:19:57;;;;;;;12.25;2.20;;;10.60;92.60;;;;;;5037214;28;20021;-75
2021/12/01 05:22:23;;;;;;;12.35;2.25;;;10.50;92.40;;;;;;5037428;28;20021;-74
2021/12/01 05:24:48;;;;;;;14.43;3.55;;;10.50;92.70;;;;;;5037148;28;20044;-75
2021/12/01 05:27:14;;;;;;;17.38;2.33;;;10.40;92.40;;;;;;5036005;28;20025;-75
2021/12/01 05:29:40;;;;;;;10.75;1.65;;;10.30;92.30;;;;;;5037179;28;20087;-74
2021/12/01 05:32:06;;;;;;;9.45;1.90;;;10.30;92.30;;;;;;5035450;28;20116;-73
2021/12/01 05:34:32;;;;;;;12.40;2.45;;;10.20;92.20;;;;;;5037139;28;20052;-76
2021/12/01 05:37:01;;;;;;;12.95;1.95;;;10.20;92.20;;;;;;5037336;28;20049;-76
2021/12/01 05:39:28;;;;;;;19.20;3.72;;;10.20;92.20;;;;;;5037046;28;20026;-72
2021/12/01 05:41:55;;;;;;;17.13;2.50;;;10.20;92.20;;;;;;5037272;28;20109;-83
2021/12/01 05:44:22;;;;;;;21.77;3.10;;;10.10;92.10;;;;;;5035482;28;20108;-76
2021/12/01 05:46:48;;;;;;;17.50;2.83;;;10.10;92.10;;;;;;5035425;28;20044;-79
2021/12/01 05:49:14;;;;;;;12.85;2.25;;;10.10;92.10;;;;;;5034777;28;20389;-82
2021/12/01 05:51:40;;;;;;;15.98;2.92;;;10.00;92.00;;;;;;5023940;28;20037;-78
2021/12/01 05:54:07;;;;;;;10.13;1.92;;;10.00;92.00;;;;;;5035648;28;20029;-80
2021/12/01 05:56:33;;;;;;;18.48;2.42;;;10.00;92.10;;;;;;5037876;28;20061;-75
2021/12/01 05:58:59;;;;;;;20.63;3.88;;;10.00;92.10;;;;;;5040690;28;20033;-72
2021/12/01 06:01:25;;;;;;;19.60;3.65;;;10.00;92.10;;;;;;5040641;28;20021;-72
2021/12/01 06:03:51;;;;;;;28.38;2.90;;;10.00;92.00;;;;;;5040686;28;20120;-72
2021/12/01 06:06:16;;;;;;;17.20;2.55;;;10.00;92.10;;;;;;5040941;28;20108;-71
2021/12/01 06:08:42;;;;;;;16.20;2.25;;;10.00;92.10;;;;;;5040635;28;20080;-73
2021/12/01 06:11:08;;;;;;;20.30;2.72;;;10.00;92.10;;;;;;5040943;28;20040;-82
2021/12/01 06:13:35;;;;;;;18.77;3.10;;;10.00;92.20;;;;;;5039428;28;20049;-83
2021/12/01 06:16:01;;;;;;;18.83;3.90;;;10.10;92.40;;;;;;5039245;28;20031;-77
2021/12/01 06:18:30;;;;;;;13.90;2.33;;;10.10;92.40;;;;;;5039103;28;20036;-78
2021/12/01 06:20:59;;;;;;;15.75;2.95;;;10.10;92.50;;;;;;5040535;28;20029;-82
2021/12/01 06:23:25;;;;;;;19.20;3.38;;;10.10;92.40;;;;;;5040382;28;20105;-82
2021/12/01 06:25:51;;;;;;;20.08;3.15;;;10.00;92.30;;;;;;5040429;28;20022;-80
2021/12/01 06:28:17;;;;;;;19.83;2.92;;;10.00;92.30;;;;;;5040201;28;20078;-81
2021/12/01 06:30:43;;;;;;;17.05;2.70;;;9.90;92.30;;;;;;5040196;28;20061;-81
2021/12/01 06:33:10;;;;;;;20.05;3.00;;;9.80;92.30;;;;;;5040095;28;20017;-80
2021/12/01 06:35:36;;;;;;;15.75;3.60;;;9.80;92.40;;;;;;5040302;28;20435;-81
2021/12/01 06:38:04;;;;;;;11.60;3.33;;;9.70;92.40;;;;;;5039906;28;20153;-80
2021/12/01 06:40:30;;;;;;;13.07;2.30;;;9.70;92.60;;;;;;5040052;28;20025;-80
2021/12/01 06:42:57;;;;;;;15.93;2.53;;;9.70;92.60;;;;;;5038627;28;20056;-81
2021/12/01 06:45:23;;;;;;;18.80;3.20;;;9.70;92.60;;;;;;5039705;28;20048;-80
2021/12/01 06:47:50;;;;;;;18.05;3.30;;;9.60;92.50;;;;;;5039878;28;20029;-80
2021/12/01 06:50:16;;;;;;;20.48;2.92;;;9.60;92.40;;;;;;5028069;28;20022;-78
2021/12/01 06:52:42;;;;;;;23.30;3.50;;;9.60;92.40;;;;;;5034724;28;20038;-80
2021/12/01 06:55:10;;;;;;;15.50;2.95;;;9.50;92.20;;;;;;5039841;28;20033;-80
2021/12/01 06:57:35;;;;;;;15.63;3.05;;;9.50;92.30;;;;;;5038587;28;20030;-81
2021/12/01 07:00:04;;;;;;;13.85;2.45;;;9.50;92.30;;;;;;5038385;28;20067;-78
2021/12/01 07:02:29;;;;;;;14.23;2.67;;;9.50;92.30;;;;;;5038319;28;20480;-79
2021/12/01 07:04:55;;;;;;;16.42;2.67;;;9.50;92.20;;;;;;5037223;28;20120;-78
2021/12/01 07:07:21;;;;;;;15.63;2.92;;;9.40;92.30;;;;;;5037616;28;20071;-78
2021/12/01 07:09:50;;;;;;;20.13;4.28;;;9.50;92.40;;;;;;5039655;28;20033;-78
2021/12/01 07:12:18;;;;;;;14.35;2.88;;;9.40;92.30;;;;;;5039256;28;20071;-78
2021/12/01 07:14:44;;;;;;;16.48;4.45;;;9.50;92.40;;;;;;5039849;28;20021;-78
2021/12/01 07:17:09;;;;;;;16.95;3.72;;;9.50;92.50;;;;;;5038964;28;20033;-79
2021/12/01 07:19:35;;;;;;;12.43;2.80;;;9.50;92.40;;;;;;5039601;28;20100;-79
2021/12/01 07:22:01;;;;;;;14.13;3.08;;;9.50;92.40;;;;;;5039127;28;20039;-80
2021/12/01 07:24:29;;;;;;;14.98;2.65;;;9.40;92.50;;;;;;5039347;28;20021;-79
2021/12/01 07:26:55;;;;;;;18.25;3.20;;;9.40;92.70;;;;;;5039189;28;20100;-79
2021/12/01 07:29:21;;;;;;;17.65;3.83;;;9.50;92.70;;;;;;5039443;28;20049;-79
2021/12/01 07:31:48;;;;;;;19.05;3.33;;;9.50;92.70;;;;;;5038686;28;20056;-79
2021/12/01 07:34:15;;;;;;;24.48;4.07;;;9.50;92.80;;;;;;5039305;28;20111;-79
2021/12/01 07:36:41;;;;;;;16.17;2.90;;;9.50;92.90;;;;;;5038808;28;20124;-79
2021/12/01 07:39:06;;;;;;;20.98;3.33;;;9.50;92.70;;;;;;5039097;28;20049;-79
2021/12/01 07:41:32;;;;;;;18.25;3.20;;;9.50;92.60;;;;;;5038802;28;20033;-79
2021/12/01 07:43:58;;;;;;;21.70;3.72;;;9.40;92.50;;;;;;5038880;28;20049;-79
2021/12/01 07:46:24;;;;;;;17.42;3.75;;;9.40;92.50;;;;;;5038347;28;20064;-78
2021/12/01 07:48:50;;;;;;;17.10;3.05;;;9.40;92.50;;;;;;5038891;28;20029;-78
2021/12/01 07:51:16;;;;;;;22.55;3.55;;;9.40;92.50;;;;;;5025292;28;20029;-79
2021/12/01 07:53:43;;;;;;;16.33;3.80;;;9.40;92.50;;;;;;5038676;28;20026;-78
2021/12/01 07:56:09;;;;;;;24.70;5.85;;;9.30;92.40;;;;;;5038623;28;20146;-79
2021/12/01 07:58:34;;;;;;;21.73;4.05;;;9.30;92.40;;;;;;5038440;28;20029;-79
2021/12/01 08:01:00;;;;;;;28.60;6.05;;;9.30;92.40;;;;;;5038120;28;20033;-78
2021/12/01 08:03:26;;;;;;;21.65;4.65;;;9.30;92.40;;;;;;5037209;28;20040;-79
2021/12/01 08:05:52;;;;;;;19.23;4.72;;;9.20;92.40;;;;;;5037070;28;20040;-79
2021/12/01 08:08:18;;;;;;;22.15;6.20;;;9.20;92.40;;;;;;5038516;28;20045;-79
2021/12/01 08:10:45;;;;;;;25.98;5.70;;;9.20;92.30;;;;;;5037215;28;20032;-79
2021/12/01 08:13:11;;;;;;;25.00;4.03;;;9.20;92.20;;;;;;5038631;28;20017;-79
2021/12/01 08:15:37;;;;;;;17.80;4.47;;;9.20;92.10;;;;;;5037875;28;20029;-79
2021/12/01 08:18:03;;;;;;;15.95;2.90;;;9.20;92.10;;;;;;5037276;28;20049;-79
2021/12/01 08:20:29;;;;;;;23.48;4.88;;;9.20;92.00;;;;;;5037561;28;20029;-79
2021/12/01 08:22:55;;;;;;;27.73;4.05;;;9.20;92.00;;;;;;5038413;28;20486;-79
2021/12/01 08:25:22;;;;;;;20.80;4.28;;;9.20;92.00;;;;;;5037955;28;20412;-79
2021/12/01 08:27:48;;;;;;;20.65;4.15;;;9.20;92.00;;;;;;5038197;28;20024;-79
2021/12/01 08:30:15;;;;;;;21.75;4.00;;;9.20;92.00;;;;;;5036629;28;20083;-79
2021/12/01 08:32:46;;;;;;;24.70;5.82;;;9.20;92.00;;;;;;5036667;28;20025;-79
2021/12/01 08:35:14;;;;;;;14.00;3.60;;;9.30;92.10;;;;;;5025352;28;20071;-79
2021/12/01 08:37:39;;;;;;;24.38;4.22;;;9.30;92.10;;;;;;5037812;28;20531;-79
2021/12/01 08:40:07;;;;;;;21.95;4.43;;;9.30;92.00;;;;;;5037775;28;20134;-79
2021/12/01 08:42:34;;;;;;;15.73;3.85;;;9.30;91.90;;;;;;5037859;28;20113;-79
2021/12/01 08:45:00;;;;;;;16.20;3.78;;;9.30;91.90;;;;;;5029683;28;20073;-79
2021/12/01 08:47:26;;;;;;;22.92;4.43;;;9.30;91.80;;;;;;5037812;28;20105;-79
2021/12/01 08:49:53;;;;;;;17.40;4.13;;;9.40;91.70;;;;;;5031469;28;20061;-79
2021/12/01 08:52:19;;;;;;;22.83;3.90;;;9.40;91.70;;;;;;5030940;28;20504;-79
2021/12/01 08:54:44;;;;;;;21.65;4.43;;;9.40;91.60;;;;;;5036293;28;20076;-79
2021/12/01 08:57:10;;;;;;;18.33;4.03;;;9.40;91.60;;;;;;5037500;28;20075;-79
2021/12/01 08:59:37;;;;;;;18.67;5.25;;;9.50;91.60;;;;;;5024416;28;20029;-79
2021/12/01 09:02:03;;;;;;;17.80;2.80;;;9.60;91.40;;;;;;5037252;28;20029;-79
2021/12/01 09:04:29;;;;;;;20.25;3.35;;;9.60;91.20;;;;;;5024684;28;20083;-79
2021/12/01 09:06:56;;;;;;;18.27;3.60;;;9.70;91.10;;;;;;5037414;28;20544;-79
2021/12/01 09:09:22;;;;;;;17.40;3.45;;;9.90;90.80;;;;;;5037664;28;20079;-79
2021/12/01 09:11:50;;;;;;;20.95;3.78;;;10.00;90.50;;;;;;5037380;28;20029;-79
2021/12/01 09:14:17;;;;;;;20.02;3.83;;;10.10;90.50;;;;;;5037491;28;20445;-79
2021/12/01 09:16:45;;;;;;;18.20;3.47;;;10.20;90.40;;;;;;5036931;28;20052;-80
2021/12/01 09:19:11;;;;;;;15.73;4.60;;;10.50;90.10;;;;;;5036356;28;20033;-79
2021/12/01 09:21:37;;;;;;;18.23;4.32;;;10.60;89.90;;;;;;5037503;28;20029;-80
2021/12/01 09:24:04;;;;;;;18.60;3.83;;;10.80;89.10;;;;;;5037335;28;20071;-80
2021/12/01 09:26:30;;;;;;;21.77;4.03;;;10.90;88.60;;;;;;5037155;28;20032;-79
2021/12/01 09:28:56;;;;;;;21.08;4.85;;;11.10;88.70;;;;;;5036326;28;20025;-79
2021/12/01 09:31:22;;;;;;;20.48;4.43;;;11.40;85.80;;;;;;5037409;28;20072;-79
2021/12/01 09:33:49;;;;;;;17.92;4.72;;;11.60;84.00;;;;;;5041369;28;20113;-80
2021/12/01 09:36:15;;;;;;;20.38;5.30;;;11.80;84.10;;;;;;5041032;28;20451;-79
2021/12/01 09:38:42;;;;;;;17.45;4.55;;;12.00;83.70;;;;;;5041470;28;20481;-79
2021/12/01 09:41:08;;;;;;;19.45;3.28;;;12.30;82.90;;;;;;5041110;28;20022;-79
2021/12/01 09:43:35;;;;;;;23.65;4.88;;;12.50;79.70;;;;;;5041221;28;20018;-79
2021/12/01 09:46:04;;;;;;;24.60;4.88;;;12.60;80.30;;;;;;5040903;28;20503;-79
2021/12/01 09:48:31;;;;;;;24.15;4.00;;;12.70;79.00;;;;;;5041069;28;20021;-79
2021/12/01 09:50:58;;;;;;;20.00;4.57;;;12.90;77.70;;;;;;5027724;28;20065;-79
2021/12/01 09:53:24;;;;;;;22.95;4.25;;;12.90;77.20;;;;;;5041045;28;20492;-80
2021/12/01 09:55:50;;;;;;;19.92;3.85;;;12.90;76.20;;;;;;5040846;28;20060;-79
2021/12/01 09:58:18;;;;;;;25.63;3.70;;;12.90;75.80;;;;;;5040748;28;20029;-79
2021/12/01 10:00:51;;;;;;;19.83;3.80;;;13.00;76.20;;;;;;5040409;28;20037;-79
2021/12/01 10:03:17;;;;;;;20.98;4.05;;;13.10;77.30;;;;;;5039545;28;20157;-79
2021/12/01 10:06:04;;;;;;;17.80;3.50;;;13.40;77.70;;;;;;5040690;28;20548;-79
2021/12/01 10:08:49;;;;;;;16.05;4.03;;;13.70;76.90;;;;;;5040792;28;20021;-79
2021/12/01 10:11:33;;;;;;;20.48;3.70;;;13.90;75.80;;;;;;5030202;28;20032;-79
2021/12/01 10:14:02;;;;;;;18.42;3.10;;;14.20;74.00;;;;;;5040633;28;20026;-79
2021/12/01 10:16:34;;;;;;;14.68;3.20;;;14.40;73.30;;;;;;5040267;28;20029;-80
2021/12/01 10:19:07;;;;;;;14.65;2.80;;;14.70;72.90;;;;;;5040422;28;20044;-80
2021/12/01 10:21:37;;;;;;;16.45;3.83;;;15.00;73.20;;;;;;5040537;28;20037;-80
2021/12/01 10:24:08;;;;;;;19.70;4.00;;;15.20;73.30;;;;;;5040478;28;20025;-80
2021/12/01 10:26:48;;;;;;;17.52;4.28;;;15.60;70.70;;;;;;5040382;28;20026;-80
2021/12/01 10:29:23;;;;;;;26.63;5.25;;;15.90;68.70;;;;;;5039335;28;20025;-80
2021/12/01 10:31:52;;;;;;;25.77;4.20;;;16.10;64.10;;;;;;5038542;28;20035;-79
2021/12/01 10:34:30;;;;;;;14.02;4.03;;;16.30;64.90;;;;;;5038994;28;20036;-80
2021/12/01 10:37:11;;;;;;;26.63;4.95;;;16.40;64.90;;;;;;5028140;28;20077;-79
2021/12/01 10:39:38;;;;;;;16.13;3.95;;;16.60;62.80;;;;;;5040009;28;20026;-79
2021/12/01 10:42:14;;;;;;;25.23;4.50;;;16.80;64.40;;;;;;5039743;28;20025;-79
2021/12/01 10:45:05;;;;;;;22.02;5.18;;;16.90;62.40;;;;;;5038514;28;20029;-79
2021/12/01 10:47:39;;;;;;;19.08;3.80;;;17.00;60.50;;;;;;5039956;28;20056;-79
2021/12/01 10:50:05;;;;;;;15.02;4.10;;;16.60;60.10;;;;;;5031963;28;20105;-79
2021/12/01 10:52:34;;;;;;;17.75;5.18;;;16.10;60.00;;;;;;5034911;28;20025;-79
2021/12/01 10:55:03;;;;;;;21.67;5.30;;;15.90;61.80;;;;;;5040121;28;20028;-79
2021/12/01 10:57:28;;;;;;;21.02;4.07;;;16.00;61.60;;;;;;5039567;28;20568;-79
2021/12/01 10:59:54;;;;;;;16.35;3.80;;;16.10;59.90;;;;;;5039864;28;20061;-79
2021/12/01 11:02:22;;;;;;;13.18;3.28;;;16.30;60.40;;;;;;5039562;28;20025;-79
2021/12/01 11:04:49;;;;;;;21.67;5.22;;;16.50;60.40;;;;;;5039749;28;20014;-79
2021/12/01 11:07:32;;;;;;;14.65;3.53;;;16.70;60.70;;;;;;5039630;28;20044;-80
2021/12/01 11:10:19;;;;;;;18.52;4.93;;;16.90;60.80;;;;;;5039712;28;20048;-80
2021/12/01 11:13:04;;;;;;;18.17;3.78;;;17.10;61.00;;;;;;5028077;28;20030;-80
2021/12/01 11:15:36;;;;;;;18.48;4.65;;;17.30;60.20;;;;;;5039282;28;20033;-80
2021/12/01 11:18:08;;;;;;;23.13;4.28;;;17.40;60.40;;;;;;5038442;28;20124;-80
2021/12/01 11:20:46;;;;;;;26.15;5.22;;;17.60;60.90;;;;;;5039275;28;20021;-80
2021/12/01 11:23:16;;;;;;;23.92;5.63;;;17.70;58.40;;;;;;5039244;28;20076;-80
2021/12/01 11:25:45;;;;;;;21.35;4.85;;;17.80;59.00;;;;;;5039634;28;20080;-79
2021/12/01 11:28:14;;;;;;;24.65;6.30;;;17.40;57.50;;;;;;5039101;28;20025;-80
2021/12/01 11:30:42;;;;;;;20.30;4.43;;;17.00;59.10;;;;;;5039170;28;20026;-79
2021/12/01 11:33:13;;;;;;;25.58;6.57;;;16.70;60.40;;;;;;5038997;28;20056;-79
2021/12/01 11:35:39;;;;;;;22.05;4.45;;;16.50;62.00;;;;;;5039339;28;20088;-79
2021/12/01 11:38:07;;;;;;;24.38;6.13;;;16.10;59.40;;;;;;5038732;28;20076;-80
2021/12/01 11:40:33;;;;;;;24.90;4.30;;;15.60;60.10;;;;;;5038909;28;20051;-79
2021/12/01 11:42:59;;;;;;;26.90;6.18;;;15.20;61.40;;;;;;5038811;28;20028;-79
2021/12/01 11:45:25;;;;;;;31.60;12.43;;;14.90;62.60;;;;;;5037188;28;20030;-79
2021/12/01 11:47:53;;;;;;;28.58;8.65;;;14.70;63.50;;;;;;5038602;28;20018;-79
2021/12/01 11:50:33;;;;;;;30.38;7.72;;;14.40;65.00;;;;;;5028819;28;20049;-80
2021/12/01 11:53:21;;;;;;;27.63;6.90;;;14.30;65.50;;;;;;5037250;28;20048;-79
2021/12/01 11:55:59;;;;;;;22.60;5.68;;;14.50;64.90;;;;;;5036467;28;20128;-80
2021/12/01 11:58:48;;;;;;;25.20;5.97;;;14.70;63.60;;;;;;5038489;28;20036;-79
2021/12/01 12:01:21;;;;;;;23.02;5.50;;;14.80;63.10;;;;;;5025617;28;20029;-79
2021/12/01 12:04:06;;;;;;;24.08;5.22;;;14.80;64.30;;;;;;5038417;28;20459;-79
2021/12/01 12:06:35;;;;;;;22.85;4.35;;;14.90;62.80;;;;;;5038403;28;20502;-79
2021/12/01 12:09:05;;;;;;;21.20;3.95;;;15.10;62.80;;;;;;5038330;28;20120;-79
2021/12/01 12:11:47;;;;;;;20.15;4.20;;;15.00;62.30;;;;;;5038775;28;20033;-79
2021/12/01 12:14:18;;;;;;;26.20;4.13;;;14.80;62.50;;;;;;5026283;28;20072;-79
2021/12/01 12:17:13;;;;;;;20.83;4.85;;;14.60;63.80;;;;;;5037871;28;20456;-78
2021/12/01 12:19:48;;;;;;;18.77;4.88;;;14.60;65.60;;;;;;5038397;28;20037;-79
2021/12/01 12:25:39;;;;;;;22.90;4.47;;;14.70;63.00;;;;;;5033754;28;20113;-79
2021/12/01 12:28:34;;;;;;;17.08;3.63;;;14.80;63.50;;;;;;5037954;28;20366;-79
2021/12/01 12:31:18;;;;;;;22.98;4.10;;;15.00;64.20;;;;;;5038166;28;20088;-79
2021/12/01 12:33:56;;;;;;;17.60;3.30;;;15.20;64.50;;;;;;5035170;28;20021;-79
2021/12/01 12:36:47;;;;;;;19.90;3.47;;;15.30;63.20;;;;;;5037835;28;20107;-79
2021/12/01 12:39:24;;;;;;;20.60;4.20;;;15.50;63.20;;;;;;5037815;28;20488;-79
2021/12/01 12:42:04;;;;;;;16.98;3.53;;;15.70;62.70;;;;;;5037828;28;20045;-79
2021/12/01 12:44:45;;;;;;;18.90;3.25;;;15.70;61.70;;;;;;5030548;28;20018;-79
2021/12/01 12:47:14;;;;;;;18.50;3.30;;;15.80;61.50;;;;;;5037835;28;20097;-77
2021/12/01 12:50:09;;;;;;;21.23;4.55;;;15.80;61.60;;;;;;5031938;28;20456;-79
2021/12/01 12:52:43;;;;;;;18.17;3.78;;;15.90;60.90;;;;;;5033057;28;20017;-79
2021/12/01 12:55:21;;;;;;;13.68;3.10;;;16.10;62.50;;;;;;5037811;28;20021;-78
2021/12/01 12:58:04;;;;;;;13.32;3.03;;;16.20;61.60;;;;;;5037296;28;20018;-78
2021/12/01 13:00:34;;;;;;;14.18;3.28;;;16.10;60.40;;;;;;5037365;28;20082;-78